Time;durP1;ratioP1;P1;durP2;ratioP2;P2;SDS_P1;SDS_P2;PMS_P1;PMS_P2;Temp;Humidity;BMP_temperature;BMP_pressure;BME280_temperature;BME280_humidity;BME280_pressure;Samples;Min_cycle;Max_cycle;Signal;HPM_P1;HPM_P2
2022/01/23 00:00:37;;;;;;;11.95;6.87;;;;;;;3.75;49.65;101690.98;1629960;87;21130;-51
2022/01/23 00:03:08;;;;;;;11.10;6.97;;;;;;;3.70;49.69;101690.87;1641533;86;21061;-51
2022/01/23 00:05:39;;;;;;;12.13;7.80;;;;;;;3.66;49.81;101680.48;1638614;86;21635;-52
2022/01/23 00:08:05;;;;;;;9.38;6.92;;;;;;;3.64;49.95;101679.58;1627511;86;21025;-52
2022/01/23 00:10:33;;;;;;;10.45;7.22;;;;;;;3.60;50.15;101684.22;1641770;87;21028;-51
2022/01/23 00:13:10;;;;;;;11.55;7.20;;;;;;;3.60;50.25;101682.92;1644427;84;21608;-51
2022/01/23 00:18:21;;;;;;;10.15;6.87;;;;;;;3.57;50.46;101686.70;1686992;84;21077;-51
2022/01/23 00:20:48;;;;;;;10.23;7.03;;;;;;;3.55;50.47;101690.55;1687489;83;21084;-51
2022/01/23 00:23:29;;;;;;;14.78;8.08;;;;;;;3.55;50.69;101688.38;1685890;83;20973;-51
2022/01/23 00:30:22;;;;;;;15.25;8.65;;;;;;;3.59;50.78;101688.89;1690747;83;21505;-51
2022/01/23 00:31:05;;;;;;;10.78;7.55;;;;;;;3.60;50.90;101688.95;1701592;81;20979;-53
2022/01/23 00:33:32;;;;;;;10.15;7.53;;;;;;;3.64;50.99;101685.61;1736930;82;20954;-51
2022/01/23 00:35:58;;;;;;;12.40;7.28;;;;;;;3.67;50.88;101684.81;1750972;81;21081;-51
2022/01/23 00:38:25;;;;;;;10.23;7.55;;;;;;;3.65;50.99;101680.89;1712699;83;21533;-51
2022/01/23 00:40:52;;;;;;;12.90;7.28;;;;;;;3.63;51.06;101680.41;1706219;83;21061;-51
2022/01/23 00:43:29;;;;;;;12.93;7.85;;;;;;;3.60;51.09;101679.07;1714238;83;20994;-51
2022/01/23 00:48:52;;;;;;;12.18;6.80;;;;;;;3.54;51.31;101675.95;1711231;83;21525;-51
2022/01/23 00:51:09;;;;;;;10.28;6.90;;;;;;;3.52;51.50;101680.61;1708315;83;21013;-51
2022/01/23 00:53:35;;;;;;;10.80;6.97;;;;;;;3.50;51.76;101675.85;1711185;83;21002;-51
2022/01/23 00:56:02;;;;;;;9.98;6.53;;;;;;;3.49;51.81;101667.26;1712583;83;21029;-51
2022/01/23 00:58:29;;;;;;;11.57;6.97;;;;;;;3.48;51.69;101672.38;1714247;83;21001;-51
2022/01/23 01:00:56;;;;;;;11.20;6.80;;;;;;;3.49;51.81;101679.25;1714239;83;21077;-52
2022/01/23 01:03:22;;;;;;;10.53;6.55;;;;;;;3.51;51.82;101669.45;1709859;83;21522;-51
2022/01/23 01:05:49;;;;;;;11.30;6.95;;;;;;;3.54;51.91;101667.36;1701574;83;21459;-51
2022/01/23 01:08:17;;;;;;;7.90;6.22;;;;;;;3.53;51.94;101661.75;1712003;83;21021;-51
2022/01/23 01:13:23;;;;;;;9.23;6.60;;;;;;;3.48;52.03;101666.83;1667423;85;21106;-52
2022/01/23 01:32:12;;;;;;;9.18;6.85;;;;;;;3.38;52.59;101666.59;1667222;85;21559;-52
2022/01/23 01:34:47;;;;;;;9.30;6.50;;;;;;;3.34;52.90;101667.36;1660738;85;21109;-51
2022/01/23 01:37:10;;;;;;;11.08;6.62;;;;;;;3.34;52.98;101668.64;1641688;86;21085;-51
2022/01/23 01:39:37;;;;;;;11.18;6.72;;;;;;;3.35;52.93;101669.08;1658784;86;21577;-52
2022/01/23 01:42:06;;;;;;;9.18;6.72;;;;;;;3.32;52.93;101663.89;1647613;86;21657;-51
2022/01/23 01:44:33;;;;;;;8.60;6.40;;;;;;;3.32;52.92;101670.31;1647791;86;21014;-52
2022/01/23 01:47:02;;;;;;;10.68;6.87;;;;;;;3.32;53.11;101669.03;1623022;88;21526;-51
2022/01/23 01:49:33;;;;;;;9.83;6.78;;;;;;;3.27;53.07;101669.80;1625544;87;21090;-51
2022/01/23 01:52:02;;;;;;;10.30;6.62;;;;;;;3.25;53.08;101672.76;1634437;87;21022;-51
2022/01/23 01:54:32;;;;;;;8.63;6.72;;;;;;;3.21;53.02;101676.06;1634009;86;21023;-51
2022/01/23 01:57:06;;;;;;;12.13;6.85;;;;;;;3.19;52.96;101673.87;1621042;87;21054;-51
2022/01/23 08:49:05;;;;;;;8.45;6.45;;;;;;;-0.07;67.00;101894.56;1799518;78;26650;-51
2022/01/23 08:51:31;;;;;;;7.53;5.80;;;;;;;1.45;60.86;101887.71;1754315;80;21043;-51
2022/01/23 08:53:59;;;;;;;8.05;5.00;;;;;;;1.86;58.95;101894.57;1765661;80;21062;-52
2022/01/23 08:56:26;;;;;;;6.17;4.90;;;;;;;2.06;58.08;101894.80;1768430;80;21057;-52
2022/01/23 08:58:53;;;;;;;5.47;4.47;;;;;;;2.23;57.68;101889.73;1754425;80;21017;-51
2022/01/23 09:01:20;;;;;;;9.08;4.65;;;;;;;2.41;57.35;101896.73;1754511;80;21006;-52
2022/01/23 09:03:46;;;;;;;4.80;3.85;;;;;;;2.60;56.85;101893.84;1756350;80;21035;-51
2022/01/23 09:06:12;;;;;;;4.42;4.03;;;;;;;2.79;56.28;101898.67;1763456;80;20997;-53
2022/01/23 09:08:40;;;;;;;5.37;4.05;;;;;;;2.94;55.78;101892.69;1749258;81;21068;-53
2022/01/23 09:11:13;;;;;;;5.58;4.17;;;;;;;3.10;55.28;101889.69;1743459;80;20994;-53
2022/01/23 09:16:14;;;;;;;5.42;3.85;;;;;;;3.34;54.09;101899.72;1763969;80;21026;-52
2022/01/23 09:18:40;;;;;;;6.03;4.47;;;;;;;3.42;53.68;101888.36;1718354;82;20998;-52
2022/01/23 09:21:06;;;;;;;5.85;4.30;;;;;;;3.47;53.17;101887.63;1757852;80;21070;-53
2022/01/23 09:23:33;;;;;;;5.72;4.45;;;;;;;3.56;52.93;101893.43;1768321;80;20955;-52
2022/01/23 09:26:08;;;;;;;5.90;4.33;;;;;;;3.60;52.40;101888.41;1763639;80;21021;-52
2022/01/23 09:28:34;;;;;;;5.90;4.50;;;;;;;3.65;52.15;101885.91;1758172;80;21069;-52
2022/01/23 09:31:00;;;;;;;8.13;5.62;;;;;;;3.67;51.67;101890.71;1758738;80;21005;-52
2022/01/23 09:33:28;;;;;;;8.08;4.55;;;;;;;3.68;51.83;101886.00;1753831;81;21604;-52
2022/01/23 09:35:55;;;;;;;6.08;4.62;;;;;;;3.75;51.84;101883.59;1752414;80;21478;-52
2022/01/23 09:38:21;;;;;;;5.45;4.62;;;;;;;3.85;52.02;101885.99;1756516;80;21606;-53
2022/01/23 09:40:51;;;;;;;4.60;4.05;;;;;;;3.93;52.01;101874.16;1754538;80;21119;-53
2022/01/23 09:43:20;;;;;;;5.47;3.98;;;;;;;4.00;51.78;101872.16;1746743;81;21525;-51
2022/01/23 09:45:50;;;;;;;5.72;4.83;;;;;;;4.06;50.93;101878.73;1757954;80;21513;-51
2022/01/23 09:48:17;;;;;;;5.87;3.90;;;;;;;4.08;50.30;101878.38;1670692;85;21114;-51
2022/01/23 09:50:46;;;;;;;5.92;4.37;;;;;;;4.13;49.94;101886.66;1672732;85;21087;-51
2022/01/23 09:53:14;;;;;;;9.13;6.47;;;;;;;4.15;49.54;101884.10;1663091;85;21046;-51
2022/01/23 09:55:46;;;;;;;7.17;4.85;;;;;;;4.17;49.95;101882.43;1661882;85;21145;-51
2022/01/23 09:58:14;;;;;;;7.30;5.17;;;;;;;4.23;49.88;101889.41;1653163;85;21055;-52
2022/01/23 10:00:41;;;;;;;10.53;5.35;;;;;;;4.23;50.12;101888.13;1638065;86;21119;-53
2022/01/23 10:03:08;;;;;;;6.72;5.10;;;;;;;4.24;50.28;101889.47;1665717;86;21053;-53
2022/01/23 10:05:35;;;;;;;4.70;4.20;;;;;;;4.31;50.40;101893.90;1651634;85;21051;-52
2022/01/23 10:08:01;;;;;;;8.23;4.78;;;;;;;4.39;50.03;101885.91;1609106;88;21051;-52
2022/01/23 10:10:31;;;;;;;4.47;3.83;;;;;;;4.46;49.53;101883.93;1610845;88;21669;-52
2022/01/23 10:13:00;;;;;;;4.20;3.40;;;;;;;4.53;48.36;101876.79;1617476;88;21074;-52
2022/01/23 10:15:33;;;;;;;6.72;3.92;;;;;;;4.57;47.72;101881.58;1610587;88;21053;-52
2022/01/23 10:18:00;;;;;;;4.45;3.80;;;;;;;4.59;47.65;101876.03;1615386;87;21134;-52
2022/01/23 10:20:27;;;;;;;5.35;3.67;;;;;;;4.63;48.00;101877.42;1607330;87;21113;-53
2022/01/23 10:22:55;;;;;;;4.53;3.80;;;;;;;4.69;48.21;101874.97;1590979;88;21160;-52
2022/01/23 10:25:28;;;;;;;5.08;4.20;;;;;;;4.77;48.28;101881.14;1656148;85;21087;-52
2022/01/23 10:28:10;;;;;;;4.97;3.58;;;;;;;4.82;47.30;101878.21;1672971;85;21063;-52
2022/01/23 10:30:43;;;;;;;3.87;3.37;;;;;;;4.85;47.16;101883.85;1654997;85;21036;-52
2022/01/23 10:33:19;;;;;;;6.05;3.75;;;;;;;4.84;46.98;101887.29;1571225;90;21543;-52
2022/01/23 10:36:02;;;;;;;3.90;3.50;;;;;;;4.79;46.81;101888.48;1605188;88;21206;-53
2022/01/23 10:38:53;;;;;;;4.58;3.67;;;;;;;4.76;46.72;101883.25;1586823;89;21055;-52
2022/01/23 10:49:56;;;;;;;4.72;3.20;;;;;;;4.94;44.69;101886.21;1673487;84;21135;-51
2022/01/23 10:52:39;;;;;;;4.62;3.05;;;;;;;4.91;44.89;101886.14;1659699;85;21101;-51
2022/01/23 10:55:24;;;;;;;3.10;2.80;;;;;;;4.90;45.18;101897.72;1672786;84;21072;-51
2022/01/23 10:57:54;;;;;;;3.02;2.72;;;;;;;4.96;45.13;101887.52;1665890;84;21046;-51
2022/01/23 11:00:25;;;;;;;3.70;3.00;;;;;;;5.01;44.47;101887.17;1676888;84;21043;-51
2022/01/23 11:02:52;;;;;;;;;;;;;;;5.05;43.89;101875.22;1619501;88;21580;-51
2022/01/23 11:05:19;;;;;;;3.55;2.72;;;;;;;5.06;43.91;101879.52;1605899;88;20182;-51
2022/01/23 11:07:48;;;;;;;2.55;2.35;;;;;;;5.07;43.88;101879.54;1603339;87;21607;-51
2022/01/23 11:10:18;;;;;;;3.50;2.60;;;;;;;5.10;43.64;101886.06;1611014;87;21085;-51
2022/01/23 11:18:11;;;;;;;2.62;2.33;;;;;;;4.98;42.81;101891.00;1600781;87;21084;-51
2022/01/23 11:20:44;;;;;;;3.52;2.72;;;;;;;5.00;43.22;101892.31;1570924;90;21085;-51
2022/01/23 11:23:23;;;;;;;3.30;2.75;;;;;;;5.04;42.92;101895.39;1552560;90;22629;-51
2022/01/23 11:26:00;;;;;;;2.95;2.47;;;;;;;5.03;42.78;101890.64;1544632;90;21129;-51
2022/01/23 11:28:37;;;;;;;3.83;3.00;;;;;;;5.03;42.79;101898.83;1555404;91;21160;-52
2022/01/23 11:31:09;;;;;;;4.08;3.20;;;;;;;5.01;43.37;101895.35;1549488;91;21098;-52
2022/01/23 11:33:36;;;;;;;3.67;3.00;;;;;;;5.08;43.54;101900.64;1564424;91;21192;-50
2022/01/23 11:36:04;;;;;;;3.60;2.67;;;;;;;5.15;43.38;101892.60;1567844;90;21130;-51
2022/01/23 11:38:30;;;;;;;3.00;2.60;;;;;;;5.23;43.47;101893.61;1563751;90;21037;-51
2022/01/23 11:54:52;;;;;;;4.10;2.62;;;;;;;5.52;40.93;101898.86;1518022;93;21128;-50
2022/01/23 11:57:42;;;;;;;3.95;2.95;;;;;;;5.46;40.75;101898.76;1520013;92;21160;-50
2022/01/23 12:00:29;;;;;;;3.47;2.90;;;;;;;5.42;40.79;101903.42;1511808;93;21094;-53
2022/01/23 12:03:14;;;;;;;3.40;3.08;;;;;;;5.38;41.41;101910.66;1535649;92;21606;-50
2022/01/23 12:05:45;;;;;;;3.77;2.75;;;;;;;5.42;41.47;101909.88;1516564;93;21117;-51
2022/01/23 12:08:30;;;;;;;6.58;4.10;;;;;;;5.50;41.17;101910.88;1458437;97;21110;-50
2022/01/23 12:17:03;;;;;;;7.55;5.10;;;;;;;5.50;40.47;101918.62;1411099;100;21221;-51
2022/01/23 12:19:50;;;;;;;7.40;4.25;;;;;;;5.54;40.81;101915.24;1445018;98;21141;-51
2022/01/23 12:22:34;;;;;;;4.95;3.83;;;;;;;5.60;41.09;101916.64;1450625;96;21090;-51
2022/01/23 12:25:20;;;;;;;3.10;2.80;;;;;;;5.67;41.35;101921.04;1471702;96;21598;-51
2022/01/23 12:27:47;;;;;;;2.62;2.40;;;;;;;5.71;41.04;101927.98;1435886;98;21105;-51
2022/01/23 12:30:28;;;;;;;3.60;2.80;;;;;;;5.69;40.03;101926.69;1436355;99;21105;-51
2022/01/23 12:33:26;;;;;;;5.58;4.20;;;;;;;5.72;40.29;101927.16;1440960;99;21730;-51
2022/01/23 12:35:55;;;;;;;5.45;4.17;;;;;;;5.76;40.17;101928.54;1443416;98;21133;-51
2022/01/23 12:38:39;;;;;;;4.15;3.40;;;;;;;5.79;39.39;101927.69;1397795;102;21145;-51
2022/01/23 12:41:26;;;;;;;3.90;2.87;;;;;;;5.81;39.40;101936.37;1360939;103;21183;-51
2022/01/23 12:44:17;;;;;;;2.90;2.60;;;;;;;5.81;39.52;101936.37;1352046;105;21210;-51
2022/01/23 12:46:55;;;;;;;3.40;2.52;;;;;;;5.80;39.38;101937.20;1356628;105;21660;-51
2022/01/23 12:49:33;;;;;;;3.67;2.50;;;;;;;5.79;38.98;101936.73;1354593;105;21211;-51
2022/01/23 12:52:12;;;;;;;3.62;2.72;;;;;;;5.77;38.75;101944.88;1394487;101;21155;-51
2022/01/23 12:54:56;;;;;;;3.77;2.85;;;;;;;5.76;38.70;101940.58;1396961;101;21260;-51
2022/01/23 12:57:41;;;;;;;3.62;2.45;;;;;;;5.72;38.65;101945.24;1371513;102;21157;-51
2022/01/23 13:00:19;;;;;;;6.62;4.20;;;;;;;5.69;38.87;101940.89;1357897;104;21213;-51
2022/01/23 13:02:47;;;;;;;4.75;3.60;;;;;;;5.70;39.25;101945.64;1361297;103;21195;-51
2022/01/23 13:05:15;;;;;;;4.00;3.45;;;;;;;5.69;39.08;101945.17;1384533;101;21101;-51
2022/01/23 13:08:01;;;;;;;3.37;2.95;;;;;;;5.70;39.24;101959.84;1412929;100;21705;-51
2022/01/23 13:12:50;;;;;;;2.70;2.30;;;;;;;5.68;39.43;101952.48;1465539;97;21124;-52
2022/01/23 13:31:53;;;;;;;4.53;3.02;;;;;;;5.54;39.19;101973.33;1484836;94;21215;-50
2022/01/23 13:34:33;;;;;;;3.10;2.22;;;;;;;5.53;39.04;101975.45;1509317;93;21073;-51
2022/01/23 13:37:08;;;;;;;2.92;2.62;;;;;;;5.49;38.98;101976.23;1503836;91;21318;-51
2022/01/23 13:39:46;;;;;;;5.17;2.90;;;;;;;5.42;39.41;101975.70;1605777;88;21163;-51
2022/01/23 13:42:32;;;;;;;2.60;2.40;;;;;;;5.37;39.76;101977.30;1605548;88;21610;-50
2022/01/23 13:58:35;;;;;;;2.52;1.75;;;;;;;5.25;39.66;101980.95;1519555;93;21122;-52
2022/01/23 14:01:03;;;;;;;2.67;1.98;;;;;;;5.22;40.82;101987.32;1563177;90;21943;-51
2022/01/23 14:03:28;;;;;;;2.20;2.00;;;;;;;5.17;41.74;101990.25;1549175;91;21097;-51
2022/01/23 14:05:56;;;;;;;4.33;1.98;;;;;;;5.11;41.87;101990.13;1565465;90;21111;-52
2022/01/23 14:08:22;;;;;;;3.22;2.30;;;;;;;5.04;41.91;101993.41;1573937;91;21639;-51
2022/01/23 14:10:52;;;;;;;3.52;2.40;;;;;;;4.98;42.03;101990.71;1551547;92;21581;-51
2022/01/23 14:13:19;;;;;;;2.33;1.90;;;;;;;4.91;42.20;101995.75;1520045;92;21081;-51
2022/01/23 14:15:51;;;;;;;2.77;2.20;;;;;;;4.84;42.18;101996.44;1556384;90;21104;-51
2022/01/23 14:18:24;;;;;;;4.20;2.60;;;;;;;4.82;42.47;101992.96;1568165;91;21683;-52
2022/01/23 14:21:04;;;;;;;3.10;2.58;;;;;;;4.85;42.53;101998.20;1528391;92;21153;-52
2022/01/23 14:23:31;;;;;;;3.02;2.40;;;;;;;4.86;42.62;102002.50;1506008;93;21087;-51
2022/01/23 14:26:00;;;;;;;4.75;2.77;;;;;;;4.91;42.79;102012.52;1504675;94;21113;-51
2022/01/23 14:28:37;;;;;;;4.33;3.15;;;;;;;4.93;43.00;102019.86;1505833;95;21624;-52
2022/01/23 14:31:16;;;;;;;3.65;2.92;;;;;;;4.93;42.98;102023.73;1514970;93;21082;-51
2022/01/23 14:33:39;;;;;;;3.95;2.92;;;;;;;4.91;42.29;102029.27;1565083;89;21100;-52
2022/01/23 14:36:28;;;;;;;4.35;3.20;;;;;;;4.89;42.25;102030.95;1587231;89;21129;-51
2022/01/23 14:39:10;;;;;;;4.17;2.83;;;;;;;4.83;42.68;102030.82;1594866;89;21627;-51
2022/01/23 14:41:40;;;;;;;3.58;2.33;;;;;;;4.82;42.72;102028.22;1593356;88;21085;-51
2022/01/23 14:44:26;;;;;;;3.35;2.40;;;;;;;4.79;42.72;102036.75;1582012;89;21084;-51
2022/01/23 14:46:57;;;;;;;3.33;2.40;;;;;;;4.75;42.66;102046.55;1600080;88;21579;-51
2022/01/23 14:49:27;;;;;;;3.65;2.47;;;;;;;4.64;42.82;102050.58;1603856;88;21583;-51
2022/01/23 14:51:57;;;;;;;6.78;3.90;;;;;;;4.54;43.14;102048.62;1578607;89;21101;-51
2022/01/23 14:54:26;;;;;;;5.05;3.60;;;;;;;4.48;43.15;102052.77;1580690;89;21100;-51
2022/01/23 14:56:53;;;;;;;5.28;3.33;;;;;;;4.43;43.39;102064.69;1594816;89;21042;-51
2022/01/23 14:59:19;;;;;;;6.15;3.52;;;;;;;4.37;43.27;102065.39;1585590;89;21537;-51
2022/01/23 15:01:46;;;;;;;4.55;3.47;;;;;;;4.29;43.50;102067.32;1581194;89;21078;-51
2022/01/23 15:04:15;;;;;;;4.80;3.17;;;;;;;4.27;43.55;102069.87;1584186;89;21030;-51
2022/01/23 15:06:44;;;;;;;4.05;3.30;;;;;;;4.27;43.57;102069.87;1578326;89;21072;-51
2022/01/23 15:09:11;;;;;;;3.67;3.00;;;;;;;4.28;43.99;102074.20;1575099;89;21305;-52
2022/01/23 15:11:38;;;;;;;3.37;2.50;;;;;;;4.27;44.03;102075.43;1563919;89;21065;-51
2022/01/23 15:14:07;;;;;;;4.30;2.80;;;;;;;4.23;44.04;102075.78;1588939;89;21092;-51
2022/01/23 15:16:34;;;;;;;3.62;2.50;;;;;;;4.20;44.15;102090.30;1586405;89;21555;-51
2022/01/23 15:19:01;;;;;;;3.25;2.33;;;;;;;4.14;44.70;102091.03;1592276;89;21065;-51
2022/01/23 15:21:27;;;;;;;4.17;2.95;;;;;;;4.08;44.95;102096.02;1683451;84;20994;-51
2022/01/23 15:23:56;;;;;;;9.85;6.85;;;;;;;4.05;45.38;102106.23;1706783;80;20980;-51
2022/01/23 15:26:27;;;;;;;17.02;11.00;;;;;;;3.97;45.52;102106.04;1750970;80;21477;-51
2022/01/23 15:28:54;;;;;;;12.45;8.90;;;;;;;3.92;45.67;102107.61;1761023;80;21003;-51
2022/01/23 15:31:22;;;;;;;7.67;5.97;;;;;;;3.90;46.01;102104.13;1766317;80;21018;-51
2022/01/23 15:33:48;;;;;;;5.60;4.15;;;;;;;3.89;46.07;102107.55;1759247;80;21035;-51
2022/01/23 15:36:16;;;;;;;5.97;3.60;;;;;;;3.88;46.16;102117.78;1751735;80;21510;-51
2022/01/23 15:38:46;;;;;;;3.95;3.52;;;;;;;3.88;46.27;102125.09;1758183;80;21548;-51
2022/01/23 15:41:12;;;;;;;6.45;2.90;;;;;;;3.89;46.46;102128.55;1753729;80;20975;-52
2022/01/23 15:43:39;;;;;;;3.40;3.10;;;;;;;3.87;46.32;102128.92;1755112;80;21002;-53
2022/01/23 15:46:06;;;;;;;6.10;3.92;;;;;;;3.87;46.63;102134.08;1762891;80;21075;-52
2022/01/23 15:48:33;;;;;;;5.10;3.50;;;;;;;3.89;46.67;102136.28;1751139;80;21540;-52
2022/01/23 15:51:01;;;;;;;5.87;4.72;;;;;;;3.91;46.54;102143.62;1754741;80;21018;-51
2022/01/23 15:53:28;;;;;;;5.80;4.40;;;;;;;3.94;46.32;102141.12;1755235;80;21007;-52
2022/01/23 15:55:55;;;;;;;5.92;4.53;;;;;;;3.93;46.22;102148.00;1734997;80;21002;-52
2022/01/23 15:58:22;;;;;;;6.53;4.53;;;;;;;3.94;46.21;102142.00;1760231;80;21093;-52
2022/01/23 16:00:48;;;;;;;8.23;4.80;;;;;;;3.96;46.35;102153.21;1738491;81;21034;-51
2022/01/23 16:03:16;;;;;;;6.83;5.05;;;;;;;3.97;46.52;102155.37;1755118;80;21018;-51
2022/01/23 16:05:43;;;;;;;7.15;5.30;;;;;;;3.96;46.27;102156.19;1754972;81;21007;-51
2022/01/23 16:08:09;;;;;;;5.67;4.65;;;;;;;3.93;46.45;102160.88;1762344;80;21066;-52
2022/01/23 16:10:36;;;;;;;10.05;6.15;;;;;;;3.92;46.44;102164.67;1762868;80;21013;-51
2022/01/23 16:13:03;;;;;;;12.50;6.95;;;;;;;3.91;46.75;102159.08;1758402;80;21071;-51
2022/01/23 16:15:31;;;;;;;9.33;6.12;;;;;;;3.84;46.69;102168.33;1749343;80;21045;-51
2022/01/23 16:17:58;;;;;;;7.05;5.40;;;;;;;3.77;46.96;102166.84;1755308;81;21022;-51
2022/01/23 16:20:25;;;;;;;6.17;5.05;;;;;;;3.75;47.46;102182.66;1757119;80;21540;-52
2022/01/23 16:22:52;;;;;;;8.93;5.60;;;;;;;3.71;47.17;102183.41;1753955;80;21047;-53
2022/01/23 16:25:21;;;;;;;7.47;5.85;;;;;;;3.66;47.36;102177.23;1755788;80;21030;-51
2022/01/23 16:27:47;;;;;;;7.85;5.83;;;;;;;3.67;47.50;102185.43;1762419;80;21054;-51
2022/01/23 16:30:14;;;;;;;10.23;6.20;;;;;;;3.69;47.49;102186.34;1760410;80;21518;-51
2022/01/23 16:32:40;;;;;;;7.45;5.42;;;;;;;3.71;47.64;102195.83;1783487;80;21509;-51
2022/01/23 16:35:09;;;;;;;9.10;5.25;;;;;;;3.73;47.73;102197.19;1749011;80;21033;-51
2022/01/23 16:37:35;;;;;;;8.53;4.62;;;;;;;3.72;47.85;102198.00;1755781;80;21025;-51
2022/01/23 16:40:03;;;;;;;8.83;4.97;;;;;;;3.72;47.92;102200.58;1757361;80;21520;-52
2022/01/23 16:42:30;;;;;;;7.90;4.53;;;;;;;3.73;48.06;102199.77;1756868;80;20999;-51
2022/01/23 16:44:56;;;;;;;7.58;5.05;;;;;;;3.74;48.18;102212.67;1749714;80;21541;-51
2022/01/23 16:47:23;;;;;;;6.28;4.62;;;;;;;3.76;48.34;102213.99;1754454;80;21621;-52
2022/01/23 16:49:49;;;;;;;8.03;5.47;;;;;;;3.76;48.49;102210.13;1756966;80;21105;-52
2022/01/23 16:52:16;;;;;;;6.40;5.00;;;;;;;3.76;48.58;102220.42;1748724;80;21066;-51
2022/01/23 16:54:45;;;;;;;6.45;4.60;;;;;;;3.77;48.60;102227.34;1755784;80;21034;-53
2022/01/23 16:57:11;;;;;;;7.00;5.30;;;;;;;3.76;48.66;102237.16;1761149;80;21038;-52
2022/01/23 16:59:38;;;;;;;7.70;5.40;;;;;;;3.73;48.69;102237.09;1768626;80;21038;-51
2022/01/23 17:02:04;;;;;;;9.25;6.17;;;;;;;3.69;48.75;102237.83;1750231;80;21014;-51
2022/01/23 17:04:33;;;;;;;9.33;6.60;;;;;;;3.65;48.96;102247.13;1751293;80;21506;-52
2022/01/23 17:07:00;;;;;;;7.15;6.20;;;;;;;3.64;49.11;102249.27;1759341;80;21038;-52
2022/01/23 17:09:30;;;;;;;8.95;6.83;;;;;;;3.60;49.21;102250.00;1761562;80;21086;-51
2022/01/23 17:11:58;;;;;;;8.88;6.80;;;;;;;3.60;49.46;102267.14;1749875;80;21002;-52
2022/01/23 17:14:27;;;;;;;11.80;7.95;;;;;;;3.57;49.57;102267.03;1772793;80;21501;-51
2022/01/23 17:16:54;;;;;;;9.98;7.28;;;;;;;3.56;49.51;102271.73;1758994;80;21541;-51
2022/01/23 17:19:20;;;;;;;11.43;8.10;;;;;;;3.55;49.47;102269.97;1764759;80;21038;-51
2022/01/23 17:21:46;;;;;;;10.95;8.38;;;;;;;3.52;49.50;102274.64;1763646;80;20963;-51
2022/01/23 17:24:13;;;;;;;11.85;8.33;;;;;;;3.53;49.57;102271.63;1753983;80;21015;-51
2022/01/23 17:26:40;;;;;;;11.90;8.68;;;;;;;3.51;49.39;102270.70;1760601;80;21029;-52
2022/01/23 17:29:06;;;;;;;20.02;11.90;;;;;;;3.49;49.54;102278.79;1771261;80;21003;-51
2022/01/23 17:31:33;;;;;;;12.47;9.55;;;;;;;3.48;49.55;102278.34;1759001;80;21003;-52
2022/01/23 17:33:59;;;;;;;12.70;9.83;;;;;;;3.46;49.58;102279.59;1762911;80;21140;-51
2022/01/23 17:36:25;;;;;;;10.98;8.38;;;;;;;3.48;49.39;102277.94;1749146;81;20992;-51
2022/01/23 17:38:52;;;;;;;11.08;8.68;;;;;;;3.48;49.39;102280.52;1750650;80;21041;-51
2022/01/23 17:41:19;;;;;;;10.43;7.97;;;;;;;3.46;49.36;102281.29;1734370;81;21006;-52
2022/01/23 17:43:47;;;;;;;13.03;9.65;;;;;;;3.44;49.12;102285.11;1744793;80;21133;-52
2022/01/23 17:46:21;;;;;;;14.43;10.72;;;;;;;3.40;49.20;102281.95;1756156;80;21482;-51
2022/01/23 17:48:47;;;;;;;12.63;9.88;;;;;;;3.40;49.42;102280.66;1752116;80;21050;-51
2022/01/23 17:51:15;;;;;;;18.57;14.20;;;;;;;3.40;49.20;102292.23;1761483;80;21035;-51
2022/01/23 17:53:44;;;;;;;17.90;13.35;;;;;;;3.38;49.19;102290.47;1758009;80;21612;-51
2022/01/23 17:56:11;;;;;;;18.87;13.65;;;;;;;3.37;49.32;102299.00;1772748;80;20974;-51
2022/01/23 17:58:39;;;;;;;16.23;12.10;;;;;;;3.36;49.42;102300.69;1762930;80;21086;-52
2022/01/23 18:01:05;;;;;;;15.35;10.60;;;;;;;3.35;49.37;102299.36;1758574;81;20998;-52
2022/01/23 18:03:32;;;;;;;17.98;11.85;;;;;;;3.35;49.39;102309.66;1756498;81;21475;-51
2022/01/23 18:06:00;;;;;;;17.12;12.07;;;;;;;3.33;49.49;102313.88;1750134;80;21600;-51
2022/01/23 18:08:30;;;;;;;15.80;10.82;;;;;;;3.29;49.56;102311.22;1750020;80;21013;-51
2022/01/23 18:10:56;;;;;;;17.23;10.25;;;;;;;3.26;49.37;102314.97;1748419;80;21061;-51
2022/01/23 18:13:24;;;;;;;14.15;9.45;;;;;;;3.21;49.29;102319.07;1769121;80;21025;-52
2022/01/23 18:15:51;;;;;;;14.83;9.78;;;;;;;3.12;49.44;102311.07;1757952;80;20982;-51
2022/01/23 18:18:19;;;;;;;14.95;9.43;;;;;;;3.07;49.61;102314.33;1762930;80;21014;-51
2022/01/23 18:20:46;;;;;;;13.90;9.73;;;;;;;3.01;49.71;102317.55;1749440;80;21484;-52
2022/01/23 18:23:12;;;;;;;13.50;9.30;;;;;;;2.97;49.94;102311.84;1753017;80;21609;-51
2022/01/23 18:25:44;;;;;;;14.07;10.30;;;;;;;2.91;49.88;102316.77;1753819;81;21451;-51
2022/01/23 18:28:13;;;;;;;14.30;9.58;;;;;;;2.89;49.95;102322.28;1760782;80;21022;-51
2022/01/23 18:30:40;;;;;;;15.83;10.85;;;;;;;2.86;49.91;102320.91;1769971;80;21011;-51
2022/01/23 18:33:06;;;;;;;14.83;10.00;;;;;;;2.84;50.10;102313.55;1768185;80;20987;-52
2022/01/23 18:35:33;;;;;;;15.40;10.08;;;;;;;2.80;50.15;102315.55;1767447;80;21050;-51
2022/01/23 18:37:59;;;;;;;13.35;9.35;;;;;;;2.78;50.24;102313.75;1751708;80;21056;-51
2022/01/23 18:40:26;;;;;;;14.40;10.88;;;;;;;2.76;50.21;102317.52;1756583;80;21062;-51
2022/01/23 18:42:52;;;;;;;16.00;9.60;;;;;;;2.70;50.25;102317.75;1753774;81;21022;-52
2022/01/23 18:45:19;;;;;;;15.18;10.38;;;;;;;2.68;50.23;102317.67;1761028;81;21002;-51
2022/01/23 18:47:45;;;;;;;16.70;10.40;;;;;;;2.67;50.41;102319.80;1770570;80;21002;-51
2022/01/23 18:50:11;;;;;;;13.78;10.13;;;;;;;2.66;50.49;102319.31;1757258;81;21046;-52
2022/01/23 18:52:55;;;;;;;15.40;10.58;;;;;;;2.65;50.67;102323.12;1744020;81;21523;-52
2022/01/23 18:55:11;;;;;;;13.25;10.10;;;;;;;2.64;50.76;102324.81;1760635;80;21065;-51
2022/01/23 18:57:49;;;;;;;14.80;9.75;;;;;;;2.61;50.91;102324.72;1719905;82;20999;-51
2022/01/23 19:00:12;;;;;;;13.88;9.65;;;;;;;2.59;50.99;102322.51;1735710;81;21498;-52
2022/01/23 19:02:48;;;;;;;14.87;10.25;;;;;;;2.58;51.23;102327.60;1765172;80;21017;-52
2022/01/23 19:05:18;;;;;;;16.15;10.88;;;;;;;2.56;51.36;102322.39;1746142;80;21019;-53
2022/01/23 19:07:49;;;;;;;19.82;10.75;;;;;;;2.57;51.54;102321.58;1742919;80;21002;-53
2022/01/23 19:10:09;;;;;;;18.48;11.18;;;;;;;2.59;51.60;102328.05;1765013;80;21469;-53
2022/01/23 19:12:40;;;;;;;31.55;18.77;;;;;;;2.63;51.62;102324.37;1768525;80;21014;-53
2022/01/23 19:15:06;;;;;;;19.07;14.33;;;;;;;2.63;51.73;102326.94;1757718;80;21112;-52
2022/01/23 19:17:33;;;;;;;17.60;12.37;;;;;;;2.62;51.76;102330.31;1747279;80;21030;-53
2022/01/23 19:20:01;;;;;;;15.83;12.10;;;;;;;2.59;51.77;102334.08;1753981;80;21014;-53
2022/01/23 19:22:29;;;;;;;14.65;11.78;;;;;;;2.55;51.91;102336.07;1755532;81;20990;-53
2022/01/23 19:24:55;;;;;;;14.70;10.95;;;;;;;2.52;52.09;102339.80;1755768;80;21502;-53
2022/01/23 19:27:26;;;;;;;15.03;11.33;;;;;;;2.51;52.36;102337.19;1758628;80;21611;-52
2022/01/23 19:29:51;;;;;;;15.05;11.08;;;;;;;2.49;52.39;102339.70;1764728;80;21019;-53
2022/01/23 19:32:17;;;;;;;17.15;12.20;;;;;;;2.48;52.42;102343.08;1760002;80;20991;-52
2022/01/23 19:34:44;;;;;;;15.85;11.20;;;;;;;2.45;52.56;102342.98;1768268;80;21026;-52
2022/01/23 19:37:10;;;;;;;18.55;12.55;;;;;;;2.45;52.59;102349.41;1754061;80;21018;-52
2022/01/23 19:39:40;;;;;;;17.07;12.23;;;;;;;2.45;52.75;102348.13;1763994;80;21085;-53
2022/01/23 19:44:42;;;;;;;15.88;12.43;;;;;;;2.44;52.97;102347.64;1764616;80;21022;-52
2022/01/23 19:47:24;;;;;;;16.82;12.93;;;;;;;2.44;53.17;102357.52;1760014;80;21117;-52
2022/01/23 19:49:47;;;;;;;20.52;13.83;;;;;;;2.43;53.32;102357.03;1725029;82;21086;-52
2022/01/23 19:52:17;;;;;;;21.33;14.65;;;;;;;2.42;53.44;102351.45;1702511;83;21607;-52
2022/01/23 19:54:44;;;;;;;18.05;14.07;;;;;;;2.42;53.69;102350.56;1650410;86;21114;-52
2022/01/23 19:57:11;;;;;;;20.60;14.10;;;;;;;2.43;53.86;102357.03;1656631;85;21106;-52
2022/01/23 19:59:40;;;;;;;18.02;13.03;;;;;;;2.45;54.02;102344.27;1673021;83;21028;-52
2022/01/23 20:02:07;;;;;;;17.90;13.03;;;;;;;2.45;54.37;102354.55;1689221;83;21003;-52
2022/01/23 20:04:36;;;;;;;18.30;13.18;;;;;;;2.45;54.46;102342.98;1663435;83;21087;-52
2022/01/23 20:07:03;;;;;;;15.70;12.07;;;;;;;2.44;54.63;102354.95;1702928;82;21050;-53
2022/01/23 20:09:32;;;;;;;17.02;12.07;;;;;;;2.43;54.84;102354.91;1686368;83;21074;-52